Harmon, Illinois
Current Conditions -  °F | °C
As of 5:35 AM on Saturday 20 Dec 2014 (Local Time) from KSQI Reporting Station
Overcast Overcast  
Wind Chill: -5°   Ceiling: 3500
Heat Index: -2°   Visibility: 5mi
Dew Point: -4°   Wind: 5mph
Humidity: 86%   Direction: 100°E
Pressure: 30.26"   Gusts: NA
Location:  41.72°N, 89.55°W
Report Text: KSQI 201135Z 10004KT 5SM BKN035 OVC050 M02/M04 A3026 RMK AO1
Loading
Personal Weather Stations






























Interactive Weather Map New forecast layout! Learn more

10-Day Weather Forecast

Advertisements
Track Severe Weather on mobile